TimeEDT,TemperatureF,Dew PointF,Humidity,Sea Level PressureIn,VisibilityMPH,Wind Direction,Wind SpeedMPH,Gust SpeedMPH,PrecipitationIn,Events,Conditions,WindDirDegrees,DateUTC
12:53 AM,81.0,73.0,77,30.16,9.0,NW,4.6,-,N/A,,Clear,320,2013-07-18 04:53:00
1:53 AM,79.0,73.0,82,30.15,7.0,East,3.5,-,N/A,,Clear,90,2013-07-18 05:53:00
2:53 AM,78.1,72.0,81,30.14,9.0,Calm,Calm,-,N/A,,Clear,0,2013-07-18 06:53:00
3:53 AM,78.1,73.0,84,30.13,8.0,Calm,Calm,-,N/A,,Clear,0,2013-07-18 07:53:00
4:53 AM,75.9,73.0,91,30.13,6.0,ENE,4.6,-,N/A,,Clear,70,2013-07-18 08:53:00
5:53 AM,75.0,72.0,90,30.14,7.0,Calm,Calm,-,N/A,,Clear,0,2013-07-18 09:53:00
6:53 AM,75.0,72.0,90,30.15,5.0,SE,3.5,-,N/A,,Clear,130,2013-07-18 10:53:00
7:53 AM,81.0,72.0,74,30.15,7.0,Calm,Calm,-,N/A,,Clear,0,2013-07-18 11:53:00
8:53 AM,84.0,73.0,69,30.16,8.0,NW,3.5,-,N/A,,Clear,320,2013-07-18 12:53:00
9:53 AM,84.9,73.0,67,30.15,9.0,Calm,Calm,-,N/A,,Clear,0,2013-07-18 13:53:00
10:53 AM,88.0,73.0,61,30.15,10.0,West,5.8,-,N/A,,Clear,280,2013-07-18 14:53:00
11:53 AM,91.0,73.0,55,30.14,10.0,West,5.8,-,N/A,,Clear,270,2013-07-18 15:53:00
12:53 PM,93.0,72.0,50,30.13,10.0,South,4.6,-,N/A,,Clear,180,2013-07-18 16:53:00
1:53 PM,93.9,70.0,46,30.11,10.0,NNW,3.5,-,N/A,,Partly Cloudy,340,2013-07-18 17:53:00
2:53 PM,93.0,70.0,47,30.08,10.0,South,6.9,-,N/A,,Partly Cloudy,190,2013-07-18 18:53:00
3:53 PM,95.0,71.1,46,30.06,10.0,WSW,5.8,-,N/A,,Mostly Cloudy,240,2013-07-18 19:53:00
4:53 PM,95.0,70.0,44,30.04,10.0,SSW,5.8,-,N/A,,Partly Cloudy,210,2013-07-18 20:53:00
5:53 PM,93.0,70.0,47,30.04,10.0,West,5.8,-,N/A,,Clear,270,2013-07-18 21:53:00
6:53 PM,93.0,71.1,49,30.05,10.0,West,6.9,-,N/A,,Clear,260,2013-07-18 22:53:00
7:53 PM,91.9,72.0,52,30.05,9.0,SW,3.5,-,N/A,,Clear,230,2013-07-18 23:53:00
8:53 PM,90.0,72.0,55,30.04,9.0,Calm,Calm,-,N/A,,Clear,0,2013-07-19 00:53:00
9:53 PM,87.1,73.0,63,30.04,9.0,South,5.8,-,N/A,,Clear,170,2013-07-19 01:53:00
10:53 PM,84.9,75.0,72,30.04,8.0,South,3.5,-,N/A,,Clear,190,2013-07-19 02:53:00
11:53 PM,84.0,73.9,72,30.04,9.0,SSW,4.6,-,N/A,,Clear,210,2013-07-19 03:53:00